Time;durP1;ratioP1;P1;durP2;ratioP2;P2;SDS_P1;SDS_P2;PMS_P1;PMS_P2;Temp;Humidity;BMP_temperature;BMP_pressure;BME280_temperature;BME280_humidity;BME280_pressure;Samples;Min_cycle;Max_cycle;Signal;HPM_P1;HPM_P2
2023/06/26 00:01:34;;;;;;;6.00;2.47;;;21.60;99.90;;;;;;5030575;28;20036;-59
2023/06/26 00:04:00;;;;;;;4.80;2.63;;;21.70;99.90;;;;;;5041330;28;20052;-58
2023/06/26 00:06:27;;;;;;;5.90;2.90;;;21.50;99.90;;;;;;5031155;28;20029;-56
2023/06/26 00:08:54;;;;;;;5.57;2.53;;;21.50;99.90;;;;;;5031717;28;20029;-58
2023/06/26 00:11:22;;;;;;;5.65;2.88;;;21.50;99.90;;;;;;5047010;28;20030;-57
2023/06/26 00:13:48;;;;;;;4.88;2.70;;;21.40;99.90;;;;;;5033136;28;20068;-57
2023/06/26 00:16:13;;;;;;;9.75;3.25;;;21.30;99.90;;;;;;5047087;28;20064;-57
2023/06/26 00:18:39;;;;;;;5.10;2.22;;;21.30;99.90;;;;;;5033020;28;20021;-55
2023/06/26 00:21:05;;;;;;;8.40;2.50;;;21.20;99.90;;;;;;5031706;28;20044;-56
2023/06/26 00:23:32;;;;;;;4.85;2.50;;;21.30;99.90;;;;;;5032698;28;20033;-55
2023/06/26 00:25:57;;;;;;;5.60;2.47;;;21.30;99.90;;;;;;5031822;28;20493;-58
2023/06/26 00:28:23;;;;;;;5.18;2.78;;;21.20;99.90;;;;;;5032675;28;20044;-58
2023/06/26 00:30:49;;;;;;;5.63;3.00;;;21.10;99.90;;;;;;5046282;28;20036;-57
2023/06/26 00:33:15;;;;;;;4.50;2.15;;;21.00;99.90;;;;;;5032450;28;20416;-58
2023/06/26 00:35:41;;;;;;;5.10;2.55;;;20.90;99.90;;;;;;5024345;28;20040;-58
2023/06/26 00:38:07;;;;;;;5.55;3.13;;;21.00;99.90;;;;;;5032738;28;20029;-54
2023/06/26 00:40:32;;;;;;;6.50;2.28;;;21.00;99.90;;;;;;5031315;28;20041;-55
2023/06/26 00:42:58;;;;;;;5.28;2.80;;;20.90;99.90;;;;;;5032490;28;20105;-55
2023/06/26 00:45:24;;;;;;;6.47;2.95;;;20.90;99.90;;;;;;5031405;28;20485;-55
2023/06/26 00:47:49;;;;;;;5.85;2.83;;;20.90;99.90;;;;;;5031098;28;20022;-56
2023/06/26 00:50:17;;;;;;;7.50;3.25;;;20.90;99.90;;;;;;5031012;28;20088;-55
2023/06/26 00:52:43;;;;;;;6.43;2.35;;;20.90;99.90;;;;;;5032108;28;20026;-58
2023/06/26 00:55:09;;;;;;;4.28;2.58;;;21.00;99.90;;;;;;5027643;28;20037;-55
2023/06/26 00:57:35;;;;;;;6.53;2.55;;;21.00;99.90;;;;;;5032031;28;20059;-56
2023/06/26 01:00:01;;;;;;;5.82;2.28;;;21.00;99.90;;;;;;5042847;28;20084;-56
2023/06/26 01:02:33;;;;;;;4.50;2.40;;;21.00;99.90;;;;;;5047194;28;20025;-57
2023/06/26 01:05:03;;;;;;;4.90;2.58;;;21.00;99.90;;;;;;5028683;28;20037;-54
2023/06/26 01:07:29;;;;;;;6.33;2.80;;;21.00;99.90;;;;;;5026094;28;20075;-56
2023/06/26 01:09:55;;;;;;;7.45;3.15;;;21.00;99.90;;;;;;5029847;28;20288;-55
2023/06/26 01:12:22;;;;;;;4.65;2.55;;;20.90;99.90;;;;;;5031714;28;20041;-56
2023/06/26 01:14:47;;;;;;;6.13;2.88;;;20.90;99.90;;;;;;5030281;28;20041;-55
2023/06/26 01:17:15;;;;;;;4.72;2.53;;;20.90;99.90;;;;;;5027604;28;20095;-56
2023/06/26 01:19:42;;;;;;;4.03;2.22;;;20.80;99.90;;;;;;5045903;28;20532;-57
2023/06/26 01:22:47;;;;;;;8.23;3.13;;;20.80;99.90;;;;;;5033610;28;20083;-55
2023/06/26 01:25:20;;;;;;;4.90;2.28;;;20.70;99.90;;;;;;5028099;28;20472;-58
2023/06/26 01:27:52;;;;;;;5.05;2.40;;;20.70;99.90;;;;;;5031452;28;20037;-57
2023/06/26 01:30:20;;;;;;;5.25;2.50;;;20.70;99.90;;;;;;5043107;28;20129;-55
2023/06/26 01:32:46;;;;;;;5.47;3.10;;;20.70;99.90;;;;;;5031117;28;20021;-55
2023/06/26 01:35:15;;;;;;;6.25;2.88;;;20.50;99.90;;;;;;5023362;28;20617;-57
2023/06/26 01:37:41;;;;;;;7.60;2.97;;;20.50;99.90;;;;;;5046487;28;20104;-57
2023/06/26 01:40:07;;;;;;;5.75;2.83;;;20.20;99.90;;;;;;5045902;28;20120;-58
2023/06/26 01:42:34;;;;;;;7.75;3.20;;;20.20;99.90;;;;;;5031105;28;20068;-54
2023/06/26 01:45:14;;;;;;;5.25;2.63;;;20.00;99.90;;;;;;5029491;28;20029;-57
2023/06/26 01:47:46;;;;;;;8.02;2.88;;;20.00;99.90;;;;;;5029867;28;20029;-56
2023/06/26 01:50:22;;;;;;;5.32;2.67;;;19.90;99.90;;;;;;5029318;28;20083;-56
2023/06/26 01:53:04;;;;;;;6.28;2.55;;;19.90;99.90;;;;;;5031131;28;20712;-54
2023/06/26 01:55:46;;;;;;;7.47;3.28;;;19.80;99.90;;;;;;5030268;28;20041;-52
2023/06/26 01:58:16;;;;;;;5.90;2.35;;;19.70;99.90;;;;;;5031085;28;20109;-56
2023/06/26 02:00:43;;;;;;;4.60;2.45;;;19.80;99.90;;;;;;5045376;28;20515;-57
2023/06/26 02:03:09;;;;;;;6.95;2.88;;;19.80;99.90;;;;;;5030825;28;20033;-57
2023/06/26 02:05:35;;;;;;;5.78;2.92;;;19.80;99.90;;;;;;5030581;28;20044;-57
2023/06/26 02:08:04;;;;;;;4.93;2.60;;;19.60;99.90;;;;;;5030765;28;20056;-53
2023/06/26 02:10:30;;;;;;;6.13;2.47;;;19.80;99.90;;;;;;5043716;28;20033;-54
2023/06/26 02:12:55;;;;;;;7.45;3.30;;;19.90;99.90;;;;;;5030734;28;20036;-52
2023/06/26 02:15:21;;;;;;;4.78;2.78;;;19.90;99.90;;;;;;5030005;28;20072;-58
2023/06/26 02:17:48;;;;;;;4.55;2.75;;;20.00;99.90;;;;;;5030544;28;20087;-57
2023/06/26 02:20:17;;;;;;;7.22;2.70;;;20.10;99.90;;;;;;5029427;28;20112;-55
2023/06/26 02:22:42;;;;;;;7.55;3.20;;;20.10;99.90;;;;;;5030784;28;20114;-55
2023/06/26 02:25:12;;;;;;;5.60;3.13;;;20.00;99.90;;;;;;5030124;28;20485;-58
2023/06/26 02:27:38;;;;;;;9.85;3.10;;;19.70;99.90;;;;;;5030642;28;20448;-57
2023/06/26 02:30:05;;;;;;;5.50;2.65;;;19.80;99.90;;;;;;5029446;28;20040;-54
2023/06/26 02:32:31;;;;;;;7.22;3.05;;;19.90;99.90;;;;;;5030320;28;20021;-55
2023/06/26 02:34:56;;;;;;;6.88;2.78;;;20.00;99.90;;;;;;5030096;28;20447;-55
2023/06/26 02:37:22;;;;;;;5.55;2.78;;;20.10;99.90;;;;;;5029275;28;20033;-57
2023/06/26 02:39:48;;;;;;;7.45;3.35;;;20.30;99.90;;;;;;5029100;28;20476;-54
2023/06/26 02:42:14;;;;;;;7.65;3.05;;;20.30;99.90;;;;;;5030315;28;20064;-54
2023/06/26 02:44:40;;;;;;;5.93;3.35;;;20.20;99.90;;;;;;5045030;28;20045;-53
2023/06/26 02:47:05;;;;;;;7.80;2.67;;;20.20;99.90;;;;;;5029322;28;20481;-49
2023/06/26 02:49:31;;;;;;;4.97;2.50;;;20.30;99.90;;;;;;5027627;28;20033;-53
2023/06/26 02:51:57;;;;;;;6.50;2.97;;;20.40;99.90;;;;;;5030312;28;20033;-54
2023/06/26 02:54:23;;;;;;;4.82;2.35;;;20.40;99.90;;;;;;5029525;28;20036;-55
2023/06/26 02:56:48;;;;;;;4.13;2.35;;;20.40;99.90;;;;;;5035436;28;20033;-54
2023/06/26 02:59:15;;;;;;;5.55;3.20;;;20.40;99.90;;;;;;5029058;28;20025;-56
2023/06/26 03:01:40;;;;;;;9.27;3.20;;;20.50;99.90;;;;;;5029596;28;20159;-57
2023/06/26 03:04:07;;;;;;;5.82;2.60;;;20.60;99.90;;;;;;5016997;28;21029;-56
2023/06/26 03:06:32;;;;;;;13.15;4.15;;;20.60;99.90;;;;;;5025740;28;20072;-50
2023/06/26 03:08:58;;;;;;;4.80;2.20;;;20.50;99.90;;;;;;5030130;28;20485;-58
2023/06/26 03:11:24;;;;;;;6.25;3.33;;;20.50;99.90;;;;;;5028792;28;20037;-57
2023/06/26 03:13:49;;;;;;;8.60;2.45;;;20.30;99.90;;;;;;5028784;28;20061;-55
2023/06/26 03:16:15;;;;;;;7.43;2.60;;;20.30;99.90;;;;;;5029316;28;20030;-56
2023/06/26 03:18:41;;;;;;;6.18;2.40;;;20.40;99.90;;;;;;5012272;28;20393;-52
2023/06/26 03:21:08;;;;;;;4.45;2.65;;;20.50;99.90;;;;;;5028922;28;20065;-58
2023/06/26 03:23:34;;;;;;;6.20;3.50;;;20.40;99.90;;;;;;5022220;28;20104;-57
2023/06/26 03:26:00;;;;;;;6.47;3.05;;;20.40;99.90;;;;;;5029778;28;20541;-54
2023/06/26 03:28:26;;;;;;;7.53;3.35;;;20.30;99.90;;;;;;5048627;28;20061;-55
2023/06/26 03:30:52;;;;;;;5.07;2.90;;;20.20;99.90;;;;;;5045477;23;20046;-56
2023/06/26 03:33:18;;;;;;;12.90;4.30;;;20.00;99.90;;;;;;5033739;28;20044;-52
2023/06/26 03:35:43;;;;;;;8.32;3.47;;;20.00;99.90;;;;;;5027526;28;20485;-52
2023/06/26 03:38:09;;;;;;;4.90;3.05;;;19.90;99.90;;;;;;5033201;28;20029;-54
2023/06/26 03:40:35;;;;;;;6.72;3.10;;;19.90;99.90;;;;;;5041974;28;20048;-51
2023/06/26 03:43:01;;;;;;;12.00;3.35;;;19.80;99.90;;;;;;5033348;28;20033;-54
2023/06/26 03:45:27;;;;;;;6.80;3.17;;;19.70;99.90;;;;;;5027477;28;20033;-53
2023/06/26 03:47:52;;;;;;;7.80;3.33;;;19.60;99.90;;;;;;5033120;28;20041;-52
2023/06/26 03:50:19;;;;;;;6.60;3.75;;;19.60;99.90;;;;;;5042082;28;20037;-56
2023/06/26 03:52:45;;;;;;;5.07;2.53;;;19.50;99.90;;;;;;5033245;28;20100;-56
2023/06/26 03:55:11;;;;;;;3.97;2.42;;;19.50;99.90;;;;;;5032634;28;20053;-58
2023/06/26 03:57:37;;;;;;;5.80;2.88;;;19.50;99.90;;;;;;5033014;28;20064;-54
2023/06/26 04:00:11;;;;;;;3.80;2.28;;;19.50;99.90;;;;;;5032193;28;20041;-57
2023/06/26 04:02:36;;;;;;;6.95;3.00;;;19.40;99.90;;;;;;5032005;28;20095;-57
2023/06/26 04:05:04;;;;;;;6.22;2.67;;;19.50;99.90;;;;;;5032599;28;20037;-55
2023/06/26 04:07:30;;;;;;;6.65;3.15;;;19.40;99.90;;;;;;5031822;28;20025;-57
2023/06/26 04:10:00;;;;;;;7.75;3.50;;;19.40;99.90;;;;;;5032291;28;20038;-58
2023/06/26 04:12:25;;;;;;;8.15;2.90;;;19.30;99.90;;;;;;5032574;28;20108;-57
2023/06/26 04:14:51;;;;;;;6.75;2.75;;;19.30;99.90;;;;;;5032453;28;20113;-55
2023/06/26 04:17:17;;;;;;;7.63;3.72;;;19.30;99.90;;;;;;5032839;28;20025;-58
2023/06/26 04:19:43;;;;;;;7.00;2.90;;;19.30;99.90;;;;;;5030018;28;20033;-56
2023/06/26 04:22:08;;;;;;;7.38;3.20;;;19.40;99.90;;;;;;5029428;28;20025;-51
2023/06/26 04:24:34;;;;;;;4.95;3.00;;;19.40;99.90;;;;;;5034897;28;20041;-51
2023/06/26 04:27:00;;;;;;;4.25;2.15;;;19.40;99.90;;;;;;5029636;28;20079;-62
2023/06/26 04:29:28;;;;;;;5.50;2.47;;;19.60;99.90;;;;;;5031120;28;20504;-61
2023/06/26 04:31:58;;;;;;;6.57;2.92;;;19.70;99.90;;;;;;5030781;28;20033;-62
2023/06/26 04:34:27;;;;;;;6.65;2.83;;;19.60;99.90;;;;;;5029012;28;20544;-63
2023/06/26 04:36:54;;;;;;;11.75;3.17;;;19.60;99.90;;;;;;5027014;28;20029;-63
2023/06/26 04:39:20;;;;;;;10.80;3.80;;;19.50;99.90;;;;;;5029612;28;20029;-62
2023/06/26 04:41:46;;;;;;;7.00;3.25;;;19.50;99.90;;;;;;5025703;28;20033;-62
2023/06/26 04:44:12;;;;;;;14.05;3.75;;;19.60;99.90;;;;;;5032391;28;20028;-63
2023/06/26 04:46:41;;;;;;;5.70;3.38;;;19.70;99.90;;;;;;5040832;28;20037;-62
2023/06/26 04:49:08;;;;;;;3.95;2.35;;;19.70;99.90;;;;;;5032112;28;20025;-63
2023/06/26 04:51:40;;;;;;;6.78;3.03;;;19.90;99.90;;;;;;5024409;28;20049;-62
2023/06/26 04:54:10;;;;;;;6.18;2.85;;;20.00;99.90;;;;;;5032085;28;20033;-63
2023/06/26 04:56:36;;;;;;;3.83;2.35;;;20.10;99.90;;;;;;5031501;28;20112;-62
2023/06/26 04:59:03;;;;;;;8.02;3.17;;;20.10;99.90;;;;;;5030734;28;20037;-62
2023/06/26 05:01:29;;;;;;;7.35;3.45;;;20.20;99.90;;;;;;5023784;28;20029;-62
2023/06/26 05:04:04;;;;;;;8.40;3.72;;;20.30;99.90;;;;;;5047144;28;20033;-62
2023/06/26 05:06:30;;;;;;;7.25;3.42;;;20.50;99.90;;;;;;5026041;28;20038;-62
2023/06/26 05:08:56;;;;;;;8.07;3.67;;;20.50;99.90;;;;;;5031788;28;20036;-62
2023/06/26 05:11:22;;;;;;;9.10;4.30;;;20.60;99.90;;;;;;5030733;28;20037;-62
2023/06/26 05:13:49;;;;;;;7.53;3.58;;;20.80;99.90;;;;;;5030487;28;20021;-62
2023/06/26 05:16:15;;;;;;;6.93;3.53;;;20.80;99.90;;;;;;5031231;28;20112;-62
2023/06/26 05:18:41;;;;;;;6.07;3.22;;;20.80;99.90;;;;;;5031624;28;20108;-62
2023/06/26 05:21:07;;;;;;;7.20;3.20;;;20.90;99.90;;;;;;5030784;28;20033;-64
2023/06/26 05:23:34;;;;;;;7.10;3.25;;;21.00;99.90;;;;;;5038442;28;20061;-63
2023/06/26 05:26:03;;;;;;;6.22;3.63;;;21.10;99.90;;;;;;5030690;28;20107;-63
2023/06/26 05:28:35;;;;;;;6.72;3.28;;;21.10;99.90;;;;;;5046900;28;20033;-62
2023/06/26 05:31:04;;;;;;;6.40;3.33;;;21.20;99.90;;;;;;5030305;28;20404;-62
2023/06/26 05:33:31;;;;;;;6.82;3.50;;;21.30;99.90;;;;;;5028627;28;20029;-62
2023/06/26 05:35:59;;;;;;;5.68;2.95;;;21.30;99.90;;;;;;5045230;28;20044;-62
2023/06/26 05:38:25;;;;;;;6.68;3.35;;;21.40;99.90;;;;;;5030771;28;20029;-61
2023/06/26 05:40:51;;;;;;;6.10;2.58;;;21.40;99.90;;;;;;5030875;28;20036;-61
2023/06/26 05:43:20;;;;;;;7.60;3.53;;;21.50;99.90;;;;;;5030694;28;20124;-61
2023/06/26 05:45:48;;;;;;;8.88;3.78;;;21.60;99.90;;;;;;5028578;28;20026;-62
2023/06/26 05:48:14;;;;;;;6.80;3.47;;;21.60;99.90;;;;;;5038483;28;20084;-62
2023/06/26 05:50:41;;;;;;;8.15;3.88;;;21.70;99.90;;;;;;5042184;28;20049;-61
2023/06/26 05:53:08;;;;;;;6.88;2.85;;;21.80;99.90;;;;;;5030283;28;20083;-62
2023/06/26 05:55:34;;;;;;;9.23;4.13;;;21.90;99.90;;;;;;5022760;28;20509;-61
2023/06/26 05:58:02;;;;;;;9.10;3.53;;;22.00;99.90;;;;;;5028666;28;20025;-62
2023/06/26 06:00:29;;;;;;;7.55;3.50;;;22.00;99.90;;;;;;5029198;28;20493;-61
2023/06/26 06:02:55;;;;;;;8.02;3.30;;;22.00;99.90;;;;;;5027674;28;20034;-67
2023/06/26 06:05:24;;;;;;;7.85;3.67;;;22.00;99.90;;;;;;5024698;28;20400;-67
2023/06/26 06:07:50;;;;;;;11.15;3.53;;;22.00;99.90;;;;;;5023394;28;20041;-67
2023/06/26 06:10:16;;;;;;;9.13;3.22;;;22.10;99.90;;;;;;5027826;28;20042;-71
2023/06/26 06:12:42;;;;;;;7.57;3.78;;;22.10;99.90;;;;;;5030784;28;20030;-68
2023/06/26 06:15:08;;;;;;;13.40;4.57;;;22.10;99.90;;;;;;5030083;28;20041;-63
2023/06/26 06:17:34;;;;;;;6.32;3.67;;;22.20;99.90;;;;;;5030453;28;20029;-68
2023/06/26 06:20:00;;;;;;;7.25;3.00;;;22.30;99.90;;;;;;5029839;28;20044;-65
2023/06/26 06:22:26;;;;;;;6.65;3.67;;;22.40;99.90;;;;;;5030224;28;20095;-64
2023/06/26 06:24:52;;;;;;;6.60;3.05;;;22.50;99.90;;;;;;5029758;28;20116;-65
2023/06/26 06:27:17;;;;;;;8.23;3.20;;;22.60;99.90;;;;;;5030382;28;20037;-64
2023/06/26 06:29:43;;;;;;;7.78;3.38;;;22.70;99.90;;;;;;5029435;28;20045;-66
2023/06/26 06:32:09;;;;;;;6.50;3.35;;;22.80;99.90;;;;;;5030088;28;20408;-65
2023/06/26 06:34:35;;;;;;;8.93;3.75;;;22.90;99.90;;;;;;5041876;28;20540;-65
2023/06/26 06:37:02;;;;;;;8.38;3.72;;;23.00;99.90;;;;;;5030256;28;20101;-65
2023/06/26 06:39:28;;;;;;;5.93;3.22;;;23.20;99.90;;;;;;5037648;28;20029;-65
2023/06/26 06:41:54;;;;;;;7.82;3.05;;;23.20;99.90;;;;;;5030531;28;20101;-65
2023/06/26 06:44:20;;;;;;;5.35;3.30;;;23.30;99.90;;;;;;5029610;28;20508;-66
2023/06/26 06:46:45;;;;;;;5.68;3.17;;;23.40;99.90;;;;;;5028961;28;20029;-65
2023/06/26 06:49:11;;;;;;;6.03;2.65;;;23.50;99.90;;;;;;5037800;28;20100;-66
2023/06/26 06:51:37;;;;;;;7.10;3.22;;;23.50;99.90;;;;;;5029477;28;20044;-66
2023/06/26 06:54:03;;;;;;;8.10;3.17;;;23.60;99.90;;;;;;5038533;28;20433;-66
2023/06/26 06:56:28;;;;;;;7.35;3.20;;;23.80;99.90;;;;;;5029366;28;20028;-65
2023/06/26 06:58:54;;;;;;;7.75;3.75;;;23.80;99.70;;;;;;5029957;28;20033;-65
2023/06/26 07:01:20;;;;;;;5.82;2.97;;;24.00;99.70;;;;;;5028655;28;20029;-65
2023/06/26 07:03:46;;;;;;;6.10;2.88;;;24.00;99.20;;;;;;5029512;28;20038;-65
2023/06/26 07:06:11;;;;;;;10.23;3.70;;;24.20;99.00;;;;;;5031243;28;20033;-65
2023/06/26 07:08:37;;;;;;;8.98;3.38;;;24.30;98.50;;;;;;5030436;28;20037;-65
2023/06/26 07:11:04;;;;;;;8.82;3.05;;;24.50;98.40;;;;;;5029345;28;20112;-65
2023/06/26 07:13:30;;;;;;;10.18;3.22;;;24.60;98.20;;;;;;5033372;28;20036;-63
2023/06/26 07:15:55;;;;;;;8.55;3.55;;;24.60;98.10;;;;;;5033753;28;20029;-64
2023/06/26 07:18:21;;;;;;;6.20;3.40;;;24.70;97.70;;;;;;5030762;28;20429;-65
2023/06/26 07:20:47;;;;;;;5.07;2.60;;;24.80;97.90;;;;;;5048751;28;20507;-65
2023/06/26 07:23:12;;;;;;;7.68;3.00;;;24.90;97.80;;;;;;5033078;28;20545;-64
2023/06/26 07:25:38;;;;;;;5.97;2.88;;;25.00;97.80;;;;;;5033766;28;20045;-64
2023/06/26 07:28:11;;;;;;;7.68;3.13;;;25.10;97.90;;;;;;5033237;28;20041;-64
2023/06/26 07:30:36;;;;;;;7.90;3.72;;;25.10;97.70;;;;;;5025376;28;20076;-64
2023/06/26 07:33:02;;;;;;;7.53;3.45;;;25.10;98.00;;;;;;5031972;28;20025;-64
2023/06/26 07:35:28;;;;;;;7.10;3.40;;;25.10;97.70;;;;;;5033108;28;20083;-64
2023/06/26 07:37:54;;;;;;;6.82;3.80;;;25.10;97.80;;;;;;5032888;28;20025;-65
2023/06/26 07:40:20;;;;;;;7.20;3.45;;;25.10;97.70;;;;;;5031469;28;20037;-64
2023/06/26 07:42:46;;;;;;;5.20;3.42;;;25.20;97.90;;;;;;5033361;28;20044;-65
2023/06/26 07:45:12;;;;;;;5.30;2.88;;;25.30;98.00;;;;;;5029983;28;20041;-64
2023/06/26 07:47:39;;;;;;;6.13;3.25;;;25.50;98.00;;;;;;5033538;28;20025;-64
2023/06/26 07:50:05;;;;;;;6.03;3.25;;;25.50;98.10;;;;;;4993104;28;20091;-65
2023/06/26 07:52:31;;;;;;;8.27;2.88;;;25.70;97.80;;;;;;5016451;28;20032;-64
2023/06/26 07:54:58;;;;;;;8.00;3.28;;;25.70;97.30;;;;;;5031213;28;20116;-63
2023/06/26 07:57:24;;;;;;;7.85;3.33;;;25.70;97.30;;;;;;5033231;28;20076;-63
2023/06/26 07:59:50;;;;;;;8.93;3.22;;;25.70;97.00;;;;;;5032290;28;20033;-62
2023/06/26 08:02:16;;;;;;;6.30;3.00;;;25.80;96.70;;;;;;5033181;28;20489;-63
2023/06/26 08:04:41;;;;;;;7.18;3.33;;;25.90;96.90;;;;;;5045115;28;20087;-63
2023/06/26 08:07:07;;;;;;;6.07;3.13;;;25.80;97.10;;;;;;5031617;28;20037;-63
2023/06/26 08:09:33;;;;;;;8.30;3.20;;;25.80;97.30;;;;;;5044973;28;20033;-63
2023/06/26 08:11:59;;;;;;;7.63;2.97;;;26.00;97.10;;;;;;5033078;28;20047;-64
2023/06/26 08:14:25;;;;;;;9.00;3.45;;;26.10;97.10;;;;;;5032104;28;20465;-63
2023/06/26 08:16:52;;;;;;;7.38;3.38;;;26.30;97.10;;;;;;5033059;28;20026;-63
2023/06/26 08:19:18;;;;;;;4.97;2.65;;;26.30;96.70;;;;;;5028315;28;20033;-63
2023/06/26 08:21:45;;;;;;;6.25;2.92;;;26.30;96.30;;;;;;5032400;28;20030;-63
2023/06/26 08:24:13;;;;;;;5.80;3.10;;;26.50;96.20;;;;;;5032148;28;20080;-63
2023/06/26 08:26:39;;;;;;;5.15;2.90;;;26.60;96.20;;;;;;5031294;28;20488;-63
2023/06/26 08:29:08;;;;;;;7.60;3.60;;;26.80;95.80;;;;;;5028283;28;20112;-63
2023/06/26 08:31:38;;;;;;;5.57;2.83;;;26.90;95.70;;;;;;5046598;28;20029;-64
2023/06/26 08:34:04;;;;;;;7.20;3.15;;;27.10;95.10;;;;;;5031785;28;20382;-63
2023/06/26 08:36:31;;;;;;;22.23;3.97;;;27.30;94.90;;;;;;5047549;28;20034;-63
2023/06/26 08:38:57;;;;;;;5.15;2.70;;;27.50;94.90;;;;;;5031895;28;20037;-63
2023/06/26 08:41:24;;;;;;;7.50;3.88;;;27.70;94.70;;;;;;5031874;28;20133;-63
2023/06/26 08:43:52;;;;;;;6.38;2.80;;;27.80;95.10;;;;;;5025526;28;20604;-63
2023/06/26 08:46:19;;;;;;;5.78;3.00;;;28.00;94.30;;;;;;5032071;28;20083;-63
2023/06/26 08:49:14;;;;;;;7.43;3.25;;;27.90;94.30;;;;;;5027832;28;20033;-63
2023/06/26 08:51:45;;;;;;;5.88;2.63;;;28.10;94.00;;;;;;5023343;28;20037;-63
2023/06/26 08:54:15;;;;;;;5.78;2.70;;;28.20;94.20;;;;;;5027238;28;20043;-64
2023/06/26 08:56:44;;;;;;;5.30;2.35;;;28.10;93.60;;;;;;5030713;28;20029;-64
2023/06/26 08:59:10;;;;;;;5.47;2.80;;;28.20;93.00;;;;;;5043332;28;20030;-64
2023/06/26 09:01:37;;;;;;;8.25;3.25;;;28.30;92.10;;;;;;5030450;28;20527;-63
2023/06/26 09:04:03;;;;;;;6.13;3.10;;;28.40;91.70;;;;;;5031484;28;20508;-62
2023/06/26 09:06:29;;;;;;;5.25;2.30;;;28.40;91.50;;;;;;5046843;28;20488;-62
2023/06/26 09:08:55;;;;;;;10.50;2.75;;;28.40;91.50;;;;;;5031159;28;20048;-64
2023/06/26 09:11:21;;;;;;;3.97;2.33;;;28.40;91.50;;;;;;5030051;28;20109;-60
2023/06/26 09:13:47;;;;;;;10.70;3.20;;;28.30;91.40;;;;;;5031262;28;20508;-60
2023/06/26 09:16:13;;;;;;;9.02;2.85;;;28.50;91.30;;;;;;5046708;28;20030;-60
2023/06/26 09:18:42;;;;;;;7.57;2.60;;;28.60;91.20;;;;;;5043607;28;20040;-65
2023/06/26 09:21:09;;;;;;;5.47;2.30;;;28.70;90.50;;;;;;5046538;28;20450;-66
2023/06/26 09:23:36;;;;;;;8.60;2.42;;;28.70;90.20;;;;;;5030936;28;20086;-63
2023/06/26 09:26:05;;;;;;;5.28;2.30;;;28.90;89.40;;;;;;5030792;28;20049;-67
2023/06/26 09:28:33;;;;;;;4.13;2.20;;;28.80;89.30;;;;;;5028576;28;20041;-66
2023/06/26 09:31:04;;;;;;;3.45;1.88;;;28.90;88.50;;;;;;5024053;22;20396;-69
2023/06/26 09:33:36;;;;;;;3.60;1.92;;;29.10;88.40;;;;;;5008179;28;20493;-67
2023/06/26 09:36:05;;;;;;;4.32;2.22;;;29.20;88.20;;;;;;5006607;28;20120;-65
2023/06/26 09:38:31;;;;;;;7.72;2.97;;;29.30;88.10;;;;;;4985770;28;20030;-59
2023/06/26 09:40:56;;;;;;;5.00;2.10;;;29.30;88.10;;;;;;5006196;28;20030;-59
2023/06/26 09:43:23;;;;;;;4.30;2.20;;;29.30;88.20;;;;;;5018138;28;20038;-59
2023/06/26 09:45:49;;;;;;;5.65;2.13;;;29.30;88.30;;;;;;5006235;28;20057;-59
2023/06/26 09:48:17;;;;;;;4.22;2.30;;;29.50;87.30;;;;;;5002851;28;20493;-58
2023/06/26 09:50:43;;;;;;;6.20;2.53;;;29.50;87.20;;;;;;5017745;28;20042;-58
2023/06/26 09:53:13;;;;;;;4.32;2.33;;;29.60;87.30;;;;;;5017958;28;20101;-59
2023/06/26 09:55:43;;;;;;;;;;;29.50;86.90;;;;;;5003473;28;20054;-59
2023/06/26 09:58:15;;;;;;;4.53;2.60;;;29.60;86.90;;;;;;5002841;28;20274;-59
2023/06/26 10:00:44;;;;;;;8.95;2.58;;;29.80;86.90;;;;;;4990116;28;20029;-59
2023/06/26 10:03:13;;;;;;;6.30;2.63;;;29.40;87.40;;;;;;4982239;28;20433;-58
2023/06/26 10:05:41;;;;;;;5.43;2.70;;;29.50;86.70;;;;;;4995010;28;20026;-58
2023/06/26 10:08:08;;;;;;;4.00;2.50;;;29.80;86.90;;;;;;5002828;28;20731;-60
2023/06/26 10:10:36;;;;;;;7.25;2.42;;;30.10;86.20;;;;;;5017221;28;20114;-57
2023/06/26 10:13:15;;;;;;;6.22;2.75;;;30.10;86.00;;;;;;5017529;28;20654;-58
2023/06/26 10:15:43;;;;;;;4.55;2.65;;;30.20;85.30;;;;;;5016870;28;20026;-59
2023/06/26 10:18:10;;;;;;;5.43;2.40;;;29.90;86.20;;;;;;5017366;28;20037;-69
2023/06/26 10:20:36;;;;;;;4.63;2.55;;;29.50;86.60;;;;;;5004158;28;20022;-67
2023/06/26 10:23:05;;;;;;;5.22;2.53;;;29.50;87.20;;;;;;5002420;28;20060;-58
2023/06/26 10:25:32;;;;;;;5.40;2.50;;;29.70;86.30;;;;;;5015136;28;20030;-59
2023/06/26 10:28:02;;;;;;;7.28;3.40;;;29.70;86.40;;;;;;4998681;28;20092;-68
2023/06/26 10:30:36;;;;;;;8.05;2.83;;;29.50;86.70;;;;;;4987718;28;20038;-66
2023/06/26 10:33:03;;;;;;;6.35;3.28;;;29.70;87.30;;;;;;5005957;28;20789;-67
2023/06/26 10:35:31;;;;;;;6.50;2.95;;;29.90;86.40;;;;;;5002132;28;20030;-56
2023/06/26 10:38:06;;;;;;;7.78;2.70;;;30.20;86.40;;;;;;4997199;28;20027;-56
2023/06/26 10:40:51;;;;;;;4.50;2.50;;;30.30;85.40;;;;;;5004525;28;20048;-57
2023/06/26 10:43:18;;;;;;;5.45;2.78;;;30.50;85.00;;;;;;5002076;28;20504;-57
2023/06/26 10:45:54;;;;;;;5.65;2.90;;;30.90;85.00;;;;;;5005599;28;20467;-58
2023/06/26 10:48:20;;;;;;;6.68;2.80;;;30.90;84.20;;;;;;5016442;28;20453;-61
2023/06/26 10:50:49;;;;;;;5.85;2.80;;;30.80;84.50;;;;;;5005037;28;20034;-60
2023/06/26 10:53:22;;;;;;;11.07;2.20;;;30.70;84.50;;;;;;5006957;28;20109;-72
2023/06/26 10:56:05;;;;;;;4.95;2.25;;;30.50;84.50;;;;;;4998327;28;20468;-72
2023/06/26 10:58:41;;;;;;;7.13;2.78;;;30.30;84.80;;;;;;5004452;28;20355;-72
2023/06/26 11:01:26;;;;;;;7.10;2.85;;;30.30;85.30;;;;;;4985443;28;20045;-73
2023/06/26 11:04:05;;;;;;;4.35;2.53;;;30.00;85.60;;;;;;4984507;28;20394;-72
2023/06/26 11:06:32;;;;;;;5.95;2.80;;;29.70;85.60;;;;;;4992142;28;20061;-72
2023/06/26 11:09:04;;;;;;;5.63;2.85;;;29.70;86.30;;;;;;4987494;28;20034;-73
2023/06/26 11:11:52;;;;;;;4.22;2.50;;;29.70;86.20;;;;;;4993227;28;20430;-72
2023/06/26 11:14:23;;;;;;;5.75;2.80;;;29.80;86.50;;;;;;5007908;28;20042;-71
2023/06/26 11:16:49;;;;;;;4.50;2.25;;;30.20;86.10;;;;;;5011702;28;20416;-73
2023/06/26 11:19:19;;;;;;;6.60;2.80;;;30.30;86.70;;;;;;4989109;28;20105;-73
2023/06/26 11:21:45;;;;;;;4.70;2.65;;;30.60;85.60;;;;;;4994720;28;20037;-72
2023/06/26 11:24:13;;;;;;;5.57;2.67;;;30.80;85.60;;;;;;5022049;28;20026;-72
2023/06/26 11:26:45;;;;;;;6.72;3.00;;;30.80;84.50;;;;;;4994548;28;20022;-72
2023/06/26 11:29:12;;;;;;;7.07;3.13;;;30.50;84.60;;;;;;5008236;28;20034;-71
2023/06/26 11:31:40;;;;;;;4.78;2.78;;;30.70;84.90;;;;;;5008686;28;20085;-71
2023/06/26 11:34:11;;;;;;;8.40;2.92;;;31.10;84.30;;;;;;5012968;28;20061;-72
2023/06/26 11:36:42;;;;;;;6.30;2.67;;;31.20;83.30;;;;;;4996251;28;20046;-72
2023/06/26 11:39:09;;;;;;;5.25;2.80;;;30.90;83.60;;;;;;5021152;28;20030;-72
2023/06/26 11:41:37;;;;;;;3.55;2.22;;;30.80;83.60;;;;;;5001126;28;20035;-73
2023/06/26 11:44:10;;;;;;;3.60;2.25;;;31.30;82.80;;;;;;5005269;28;20080;-72
2023/06/26 11:46:37;;;;;;;3.63;1.90;;;31.70;81.60;;;;;;5012599;28;20041;-72
2023/06/26 11:49:04;;;;;;;6.20;1.92;;;31.60;80.20;;;;;;5022921;28;20038;-73
2023/06/26 11:51:30;;;;;;;5.78;2.22;;;30.90;80.40;;;;;;5017117;28;20667;-72
2023/06/26 11:53:56;;;;;;;4.85;2.28;;;30.90;79.70;;;;;;5022917;28;20060;-72
2023/06/26 11:56:22;;;;;;;4.15;2.40;;;30.80;79.50;;;;;;5011083;28;20038;-72
2023/06/26 11:59:01;;;;;;;6.15;2.20;;;31.00;79.00;;;;;;4989790;28;20025;-72
2023/06/26 12:01:41;;;;;;;5.80;2.45;;;31.00;77.60;;;;;;4995641;28;20100;-72
2023/06/26 12:04:12;;;;;;;3.37;2.00;;;31.20;78.20;;;;;;5024341;28;20056;-72
2023/06/26 12:06:46;;;;;;;7.20;2.13;;;31.40;76.90;;;;;;5015990;28;20120;-72
2023/06/26 12:09:13;;;;;;;4.95;2.35;;;31.50;77.00;;;;;;5025160;28;20037;-71
2023/06/26 12:11:42;;;;;;;6.35;3.20;;;31.20;76.20;;;;;;5003283;28;20053;-72
2023/06/26 12:14:09;;;;;;;4.38;2.28;;;31.30;76.60;;;;;;5024899;28;20095;-72
2023/06/26 12:16:36;;;;;;;4.22;2.13;;;31.00;76.70;;;;;;5003376;28;20018;-72
2023/06/26 12:19:04;;;;;;;3.83;1.75;;;31.10;75.20;;;;;;5003656;28;20026;-72
2023/06/26 12:21:34;;;;;;;4.43;1.92;;;31.60;74.40;;;;;;5000313;28;20037;-71
2023/06/26 12:24:00;;;;;;;5.53;2.08;;;31.60;71.10;;;;;;5007975;28;20510;-72
2023/06/26 12:26:28;;;;;;;4.15;2.00;;;31.60;70.30;;;;;;4994357;28;20030;-72
2023/06/26 12:29:04;;;;;;;6.53;2.42;;;31.60;70.50;;;;;;5012826;28;20030;-72
2023/06/26 12:31:31;;;;;;;5.95;2.17;;;31.80;69.00;;;;;;5000000;28;20053;-71
2023/06/26 12:33:56;;;;;;;7.30;2.72;;;31.90;68.10;;;;;;5022510;28;20409;-72
2023/06/26 12:36:22;;;;;;;4.75;2.00;;;31.80;67.80;;;;;;5000933;28;20100;-73
2023/06/26 12:38:49;;;;;;;9.95;2.22;;;31.60;66.80;;;;;;5021448;28;20426;-72
2023/06/26 12:41:15;;;;;;;4.05;2.10;;;31.50;67.20;;;;;;5005024;28;20021;-72
2023/06/26 12:43:42;;;;;;;7.32;2.10;;;31.60;66.70;;;;;;4993619;28;20034;-72
2023/06/26 12:46:08;;;;;;;7.10;2.20;;;31.70;66.30;;;;;;4984613;28;20352;-72
2023/06/26 12:48:47;;;;;;;5.80;2.63;;;31.90;64.90;;;;;;5001200;28;20068;-72